Time;durP1;ratioP1;P1;durP2;ratioP2;P2;SDS_P1;SDS_P2;PMS_P1;PMS_P2;Temp;Humidity;BMP_temperature;BMP_pressure;BME280_temperature;BME280_humidity;BME280_pressure;Samples;Min_cycle;Max_cycle;Signal;HPM_P1;HPM_P2
2023/04/10 00:00:34;;;;;;;5.73;5.43;;;;;;;11.17;55.50;99673.13;5072588;28;20744;-63
2023/04/10 00:03:01;;;;;;;6.07;5.67;;;;;;;10.89;56.78;99670.50;5072288;28;20280;-64
2023/04/10 00:05:29;;;;;;;6.07;5.53;;;;;;;10.95;56.26;99667.06;5072412;28;20193;-63
2023/04/10 00:07:56;;;;;;;6.17;5.30;;;;;;;11.06;55.90;99677.16;5072611;28;20202;-63
2023/04/10 00:10:25;;;;;;;5.60;5.30;;;;;;;11.02;55.81;99675.91;5072586;28;20625;-63
2023/04/10 00:12:52;;;;;;;6.53;6.20;;;;;;;10.79;56.39;99665.50;5072649;28;20189;-63
2023/04/10 00:15:19;;;;;;;7.03;6.63;;;;;;;10.79;56.20;99670.03;5072377;28;20221;-64
2023/04/10 00:17:46;;;;;;;6.67;6.27;;;;;;;10.84;57.06;99662.28;5072786;28;20191;-64
2023/04/10 00:20:13;;;;;;;6.30;5.90;;;;;;;10.91;56.55;99671.13;5072125;28;20196;-63
2023/04/10 00:22:41;;;;;;;6.93;6.53;;;;;;;10.98;56.40;99669.31;5071060;28;20257;-63
2023/04/10 00:25:08;;;;;;;6.20;5.80;;;;;;;10.84;56.74;99662.28;5061439;28;20209;-63
2023/04/10 00:27:35;;;;;;;6.07;5.67;;;;;;;10.92;57.08;99657.63;5072266;28;20274;-63
2023/04/10 00:30:02;;;;;;;6.27;5.87;;;;;;;10.96;56.96;99655.44;5072393;28;20620;-64
2023/04/10 00:32:29;;;;;;;6.23;5.73;;;;;;;10.95;56.40;99643.16;5067785;28;20662;-63
2023/04/10 00:34:55;;;;;;;6.00;5.67;;;;;;;11.05;56.36;99643.63;5051856;28;20280;-63
2023/04/10 00:37:22;;;;;;;6.27;5.87;;;;;;;11.08;56.09;99643.22;5052324;28;20194;-64
2023/04/10 00:39:50;;;;;;;5.77;5.40;;;;;;;11.11;56.07;99640.16;5051875;28;20194;-63
2023/04/10 00:42:17;;;;;;;5.73;5.37;;;;;;;10.98;56.10;99636.63;5052177;28;20205;-64
2023/04/10 00:44:44;;;;;;;7.30;6.90;;;;;;;11.02;56.53;99632.56;5051808;28;20193;-64
2023/04/10 00:47:13;;;;;;;5.90;5.60;;;;;;;11.08;56.00;99633.41;5052091;28;20204;-64
2023/04/10 00:49:40;;;;;;;6.13;5.30;;;;;;;11.12;55.91;99631.19;5056665;28;20661;-64
2023/04/10 00:52:07;;;;;;;6.50;6.10;;;;;;;11.14;56.01;99625.69;5070077;28;20735;-64
2023/04/10 00:54:35;;;;;;;6.70;6.10;;;;;;;11.18;55.86;99632.25;5069771;28;20281;-64
2023/04/10 00:57:04;;;;;;;6.20;5.80;;;;;;;11.21;55.86;99618.53;5071738;28;20583;-64
2023/04/10 00:59:31;;;;;;;6.10;5.70;;;;;;;11.15;56.49;99624.66;5070259;28;20283;-64
2023/04/10 01:01:58;;;;;;;6.60;6.10;;;;;;;10.94;57.59;99621.06;5070082;28;20275;-63
2023/04/10 01:04:27;;;;;;;6.87;6.27;;;;;;;10.89;57.80;99618.19;5071500;28;20624;-65
2023/04/10 01:07:01;;;;;;;6.87;6.37;;;;;;;10.77;59.02;99618.91;5071932;28;20207;-63
2023/04/10 01:09:38;;;;;;;7.07;6.47;;;;;;;10.66;59.08;99612.28;5071369;28;20179;-63
2023/04/10 01:12:17;;;;;;;7.83;7.10;;;;;;;10.50;60.15;99611.78;5069908;28;20178;-63
2023/04/10 01:14:53;;;;;;;7.13;6.63;;;;;;;10.34;60.54;99618.16;5070050;28;20698;-63
2023/04/10 01:17:25;;;;;;;8.03;7.23;;;;;;;10.26;60.65;99620.13;5073781;28;20184;-63
2023/04/10 01:20:02;;;;;;;8.10;7.40;;;;;;;10.18;61.22;99615.75;5070019;28;20200;-64
2023/04/10 01:22:35;;;;;;;8.00;7.20;;;;;;;9.99;61.98;99620.84;5072116;28;20181;-63
2023/04/10 01:25:19;;;;;;;8.97;7.83;;;;;;;9.93;62.32;99613.66;5074982;28;20648;-63
2023/04/10 01:28:04;;;;;;;7.47;6.77;;;;;;;9.91;62.82;99621.81;5074411;28;20257;-64
2023/04/10 01:30:35;;;;;;;7.57;6.80;;;;;;;9.98;63.13;99625.38;5072693;28;20269;-63
2023/04/10 01:33:03;;;;;;;8.17;7.40;;;;;;;10.00;63.41;99619.84;5074951;28;20241;-63
2023/04/10 01:35:31;;;;;;;9.30;8.27;;;;;;;9.87;63.34;99617.06;5074984;28;20208;-64
2023/04/10 01:38:01;;;;;;;7.70;7.00;;;;;;;9.66;63.83;99622.34;5075217;28;20202;-64
2023/04/10 01:40:29;;;;;;;8.20;7.60;;;;;;;9.56;64.40;99622.63;5075137;28;20192;-64
2023/04/10 01:42:57;;;;;;;7.17;6.73;;;;;;;9.63;64.19;99625.34;5075349;28;20560;-63
2023/04/10 01:45:27;;;;;;;7.50;6.90;;;;;;;9.66;64.27;99617.03;5074355;28;20241;-65
2023/04/10 01:47:56;;;;;;;7.40;6.90;;;;;;;9.63;65.12;99628.00;5072824;28;20188;-63
2023/04/10 01:50:24;;;;;;;7.97;7.27;;;;;;;9.53;65.46;99622.19;5070546;28;20185;-64
2023/04/10 01:52:52;;;;;;;7.27;6.67;;;;;;;9.47;65.29;99629.06;5074868;28;20188;-64
2023/04/10 01:55:21;;;;;;;7.17;6.67;;;;;;;9.50;66.02;99619.91;5074635;28;20275;-64
2023/04/10 01:57:49;;;;;;;7.63;6.83;;;;;;;9.53;66.04;99623.03;5074405;28;20191;-63
2023/04/10 02:00:16;;;;;;;9.73;7.83;;;;;;;9.54;66.34;99626.47;5072979;28;20735;-63
2023/04/10 02:02:43;;;;;;;9.63;7.37;;;;;;;9.42;66.93;99620.84;5074689;28;20626;-64
2023/04/10 02:05:11;;;;;;;8.53;7.83;;;;;;;9.40;66.71;99632.63;5074558;28;20192;-64
2023/04/10 02:07:46;;;;;;;13.37;7.70;;;;;;;9.41;66.30;99634.28;5074690;28;20195;-64
2023/04/10 02:10:17;;;;;;;8.10;7.33;;;;;;;9.47;66.64;99628.22;5071998;28;20183;-63
2023/04/10 02:12:49;;;;;;;11.20;7.53;;;;;;;9.48;66.91;99624.59;5074514;28;20203;-63
2023/04/10 02:15:19;;;;;;;15.97;8.33;;;;;;;9.46;66.95;99626.59;5072078;28;20200;-63
2023/04/10 02:17:46;;;;;;;9.40;8.40;;;;;;;9.38;67.02;99624.03;5074027;28;20192;-62
2023/04/10 02:20:17;;;;;;;8.57;7.87;;;;;;;9.33;68.18;99615.81;5067543;28;20614;-63
2023/04/10 02:22:44;;;;;;;9.17;8.30;;;;;;;9.30;68.05;99611.72;5074109;28;20187;-63
2023/04/10 02:25:11;;;;;;;9.50;8.53;;;;;;;9.34;68.87;99622.75;5070816;28;20188;-62
2023/04/10 02:27:38;;;;;;;10.40;7.57;;;;;;;9.36;68.73;99615.47;5074102;28;20228;-63
2023/04/10 02:30:06;;;;;;;8.40;7.60;;;;;;;9.34;68.66;99606.84;5074136;28;20237;-63
2023/04/10 02:32:34;;;;;;;9.97;8.90;;;;;;;9.31;69.79;99617.84;5071149;28;20676;-63
2023/04/10 02:35:01;;;;;;;13.83;9.07;;;;;;;9.30;69.40;99616.19;5073714;28;20726;-62
2023/04/10 02:37:30;;;;;;;14.40;10.00;;;;;;;9.27;69.89;99611.28;5073412;28;20212;-63
2023/04/10 02:39:56;;;;;;;33.10;9.97;;;;;;;9.31;69.96;99602.75;5073746;28;20192;-62
2023/04/10 02:42:23;;;;;;;22.00;10.03;;;;;;;9.39;70.57;99599.19;5073905;28;20257;-63
2023/04/10 02:44:50;;;;;;;11.70;8.93;;;;;;;9.45;70.27;99598.44;5073881;28;20196;-63
2023/04/10 02:47:17;;;;;;;15.67;9.43;;;;;;;9.51;69.68;99595.84;5073490;28;20188;-64
2023/04/10 02:49:44;;;;;;;15.93;9.83;;;;;;;9.55;70.12;99598.94;5073422;28;20196;-64
2023/04/10 02:52:11;;;;;;;17.77;11.10;;;;;;;9.59;69.07;99595.75;5069683;28;20184;-64
2023/04/10 02:54:39;;;;;;;13.63;10.43;;;;;;;9.56;70.01;99597.97;5073460;28;20192;-62
2023/04/10 02:57:06;;;;;;;10.93;9.90;;;;;;;9.33;69.14;99568.13;5073366;28;20212;-63
2023/04/10 02:59:33;;;;;;;11.33;10.13;;;;;;;9.52;69.58;99591.38;5063280;28;20727;-63
2023/04/10 03:01:59;;;;;;;11.23;10.13;;;;;;;9.52;69.08;99594.03;5053556;28;20589;-63
2023/04/10 03:04:26;;;;;;;11.37;10.17;;;;;;;9.61;69.27;99592.91;5054022;28;20580;-63
2023/04/10 03:06:53;;;;;;;13.90;10.03;;;;;;;9.64;68.92;99598.66;5053934;28;20251;-63
2023/04/10 03:09:20;;;;;;;11.40;10.17;;;;;;;9.65;68.87;99584.38;5053730;28;20197;-63
2023/04/10 03:11:48;;;;;;;16.77;9.97;;;;;;;9.66;67.90;99596.66;5053936;28;20242;-63
2023/04/10 03:14:15;;;;;;;11.33;10.23;;;;;;;9.71;68.01;99598.72;5053735;28;20255;-64
2023/04/10 03:16:42;;;;;;;10.23;9.27;;;;;;;9.58;67.71;99598.59;5053163;28;20311;-62
2023/04/10 03:19:09;;;;;;;10.90;9.77;;;;;;;9.66;67.77;99601.97;5053167;28;20189;-63
2023/04/10 03:21:36;;;;;;;9.87;9.03;;;;;;;9.74;66.95;99598.34;5064508;28;20188;-63
2023/04/10 03:24:02;;;;;;;10.23;8.93;;;;;;;9.67;66.92;99582.38;5073102;28;20627;-63
2023/04/10 03:26:29;;;;;;;17.27;9.40;;;;;;;9.74;66.34;99595.69;5072604;28;20192;-63
2023/04/10 03:28:57;;;;;;;9.63;8.73;;;;;;;9.64;67.15;99603.97;5073512;28;20227;-63
2023/04/10 03:31:24;;;;;;;12.17;9.73;;;;;;;9.63;67.11;99604.13;5073101;28;20714;-63
2023/04/10 03:33:50;;;;;;;9.90;8.23;;;;;;;9.67;67.47;99592.97;5073397;28;20204;-63
2023/04/10 03:36:17;;;;;;;13.80;11.27;;;;;;;9.74;66.26;99601.84;5072958;28;20271;-64
2023/04/10 03:38:44;;;;;;;13.13;9.87;;;;;;;9.73;66.54;99596.72;5072381;28;20247;-64
2023/04/10 03:41:10;;;;;;;14.57;8.87;;;;;;;9.62;67.06;99597.19;5072052;28;20666;-64
2023/04/10 03:43:37;;;;;;;10.10;8.63;;;;;;;9.66;66.71;99601.97;5063836;28;20196;-64
2023/04/10 03:46:06;;;;;;;14.83;8.57;;;;;;;9.64;66.87;99603.97;5072045;28;20245;-63
2023/04/10 03:48:33;;;;;;;13.13;8.20;;;;;;;9.60;66.18;99601.88;5071843;28;20192;-62
2023/04/10 03:50:59;;;;;;;8.47;7.63;;;;;;;9.57;66.68;99603.09;5072000;28;20245;-63
2023/04/10 03:53:26;;;;;;;9.40;8.53;;;;;;;9.57;66.55;99607.56;5071392;28;20199;-63
2023/04/10 03:55:53;;;;;;;20.17;8.57;;;;;;;9.55;66.36;99604.25;5071800;28;20200;-63
2023/04/10 03:58:20;;;;;;;12.93;8.53;;;;;;;9.48;66.18;99604.19;5070020;28;20257;-63
2023/04/10 04:00:47;;;;;;;13.73;9.03;;;;;;;9.34;66.26;99590.94;5072270;28;20219;-62
2023/04/10 04:03:15;;;;;;;16.00;10.40;;;;;;;9.37;66.07;99609.16;5071446;28;20661;-62
2023/04/10 04:05:42;;;;;;;23.97;15.63;;;;;;;9.36;67.23;99607.50;5071972;28;20635;-62
2023/04/10 04:08:09;;;;;;;31.17;18.80;;;;;;;9.35;67.19;99604.03;5071950;28;20188;-62
2023/04/10 04:10:35;;;;;;;26.03;15.73;;;;;;;9.36;67.47;99605.66;5072135;28;20192;-63
2023/04/10 04:13:02;;;;;;;27.50;14.83;;;;;;;9.36;67.69;99610.16;5067734;28;20673;-63
2023/04/10 04:15:29;;;;;;;35.87;14.83;;;;;;;9.42;67.49;99618.19;5071779;28;20188;-62
2023/04/10 04:17:57;;;;;;;25.10;13.77;;;;;;;9.37;67.18;99617.09;5071482;28;20604;-63
2023/04/10 04:20:25;;;;;;;19.00;11.80;;;;;;;9.40;67.58;99604.28;5070504;28;20222;-62
2023/04/10 04:22:51;;;;;;;15.50;10.93;;;;;;;9.69;67.88;99608.72;5071943;28;20253;-62
2023/04/10 04:25:18;;;;;;;13.87;10.60;;;;;;;9.80;65.83;99565.78;5071302;28;20184;-63
2023/04/10 04:27:45;;;;;;;18.00;10.47;;;;;;;10.61;64.36;99614.72;5071558;28;20234;-63
2023/04/10 04:30:12;;;;;;;11.07;8.90;;;;;;;11.25;62.89;99617.97;5071590;28;20249;-63
2023/04/10 04:32:39;;;;;;;10.50;9.23;;;;;;;11.79;60.61;99599.34;5071165;28;20310;-64
2023/04/10 04:35:07;;;;;;;12.33;8.93;;;;;;;12.41;58.74;99616.66;5071759;28;20196;-63
2023/04/10 04:37:35;;;;;;;12.13;8.50;;;;;;;12.44;57.50;99616.25;5071075;28;20213;-63
2023/04/10 04:40:02;;;;;;;9.97;8.97;;;;;;;12.19;57.87;99617.88;5069219;28;20264;-63
2023/04/10 04:42:29;;;;;;;15.57;9.23;;;;;;;11.88;58.83;99609.63;5067639;28;20277;-63
2023/04/10 04:44:56;;;;;;;10.40;8.97;;;;;;;11.61;59.77;99623.06;5071298;28;20186;-63
2023/04/10 04:47:23;;;;;;;12.13;8.87;;;;;;;11.33;60.96;99620.47;5071076;28;20197;-63
2023/04/10 04:49:50;;;;;;;12.57;9.77;;;;;;;11.02;62.07;99616.63;5071097;28;20226;-63
2023/04/10 04:52:17;;;;;;;16.33;9.37;;;;;;;10.69;63.48;99613.72;5071088;28;20589;-63
2023/04/10 04:54:45;;;;;;;16.33;10.63;;;;;;;10.44;65.43;99601.91;5071468;28;20192;-63
2023/04/10 04:57:11;;;;;;;16.40;11.60;;;;;;;10.30;65.96;99608.94;5071160;28;20212;-63
2023/04/10 04:59:38;;;;;;;25.80;10.23;;;;;;;10.21;66.35;99611.94;5070896;28;20626;-62
2023/04/10 05:02:05;;;;;;;18.63;11.07;;;;;;;10.24;66.60;99615.00;5071106;28;20190;-63
2023/04/10 05:04:32;;;;;;;17.83;10.67;;;;;;;10.30;66.13;99611.59;5071202;28;20188;-63
2023/04/10 05:06:58;;;;;;;21.03;11.67;;;;;;;10.31;66.18;99618.56;5070804;28;20672;-63
2023/04/10 05:09:25;;;;;;;20.10;10.40;;;;;;;10.16;66.61;99612.50;5071155;28;20189;-63
2023/04/10 05:11:53;;;;;;;11.93;8.93;;;;;;;10.14;66.19;99613.69;5067716;28;20250;-64
2023/04/10 05:14:20;;;;;;;15.80;9.33;;;;;;;10.14;66.74;99616.34;5068329;28;20187;-64
2023/04/10 05:16:47;;;;;;;23.07;10.73;;;;;;;10.29;66.97;99614.44;5070517;28;20657;-63
2023/04/10 05:19:14;;;;;;;18.93;10.93;;;;;;;10.48;66.44;99611.13;5071392;28;20241;-64
2023/04/10 05:21:40;;;;;;;14.60;10.80;;;;;;;10.68;65.92;99615.59;5053185;28;20206;-64
2023/04/10 05:24:08;;;;;;;80.10;16.80;;;;;;;10.89;64.63;99627.97;5050811;28;20197;-64
2023/04/10 05:26:34;;;;;;;18.70;11.73;;;;;;;10.79;65.14;99624.84;5065181;28;20261;-64
2023/04/10 05:29:02;;;;;;;29.20;11.67;;;;;;;10.77;65.88;99622.38;5071013;28;20732;-65
2023/04/10 05:31:29;;;;;;;73.37;15.03;;;;;;;10.95;65.42;99629.88;5070809;28;20247;-65
2023/04/10 05:33:56;;;;;;;13.40;10.33;;;;;;;11.11;64.99;99637.50;5071363;28;20196;-65
2023/04/10 05:36:23;;;;;;;11.43;10.23;;;;;;;10.97;65.09;99641.13;5071060;28;20193;-64
2023/04/10 05:38:49;;;;;;;24.97;8.83;;;;;;;11.56;85.45;99628.13;5071264;28;20207;-68
2023/04/10 05:41:16;;;;;;;13.83;8.73;;;;;;;12.32;77.86;99647.19;5069577;28;20194;-68
2023/04/10 05:43:43;;;;;;;14.60;9.67;;;;;;;12.65;67.91;99666.69;5050748;28;20199;-65
2023/04/10 05:46:11;;;;;;;48.20;12.20;;;;;;;12.67;62.94;99677.97;5051040;28;20727;-65
2023/04/10 05:48:37;;;;;;;16.00;9.60;;;;;;;12.68;63.35;99671.59;5050659;28;20200;-68
2023/04/10 05:51:05;;;;;;;15.53;10.73;;;;;;;12.68;61.09;99676.94;5051251;28;20208;-68
2023/04/10 05:53:32;;;;;;;17.43;10.83;;;;;;;12.59;60.87;99675.50;5050360;28;20654;-59
2023/04/10 05:56:00;;;;;;;16.87;11.03;;;;;;;12.59;60.40;99674.66;5050775;28;20685;-59
2023/04/10 05:58:28;;;;;;;30.03;10.80;;;;;;;12.60;60.06;99669.16;5050809;28;20223;-58
2023/04/10 06:00:55;;;;;;;16.23;10.97;;;;;;;12.60;61.08;99666.47;5051936;28;20657;-58
2023/04/10 06:03:26;;;;;;;12.80;8.00;;;;;;;12.89;59.99;99668.72;5054553;28;20199;-58
2023/04/10 06:05:52;;;;;;;13.47;9.00;;;;;;;13.05;58.46;99672.84;5054291;28;20257;-58
2023/04/10 06:08:19;;;;;;;11.83;8.80;;;;;;;13.13;57.05;99675.28;5053818;28;20623;-59
2023/04/10 06:10:46;;;;;;;9.73;7.27;;;;;;;13.60;54.68;99673.09;5061521;28;20199;-59
2023/04/10 06:13:13;;;;;;;9.40;7.17;;;;;;;14.12;53.00;99683.56;5071601;28;20903;-59
2023/04/10 06:15:40;;;;;;;21.33;7.33;;;;;;;14.56;51.13;99680.84;5072364;28;20192;-59
2023/04/10 06:18:07;;;;;;;6.87;6.27;;;;;;;14.95;49.82;99675.16;5074136;28;20223;-60
2023/04/10 06:20:35;;;;;;;9.23;6.63;;;;;;;14.92;49.15;99664.91;5073350;28;20230;-58
2023/04/10 06:23:02;;;;;;;5.90;5.50;;;;;;;15.14;47.74;99658.09;5073730;28;20261;-58
2023/04/10 06:25:29;;;;;;;7.37;6.47;;;;;;;15.42;46.86;99661.13;5074107;28;20612;-59
2023/04/10 06:27:56;;;;;;;8.17;6.30;;;;;;;15.65;47.17;99666.63;5074452;28;20223;-59
2023/04/10 06:30:23;;;;;;;7.53;5.77;;;;;;;15.44;46.09;99668.94;5073793;28;20196;-59
2023/04/10 06:32:49;;;;;;;18.73;6.13;;;;;;;15.81;45.03;99666.00;5074098;28;20242;-59
2023/04/10 06:35:16;;;;;;;13.90;6.17;;;;;;;15.49;45.59;99669.91;5074366;28;20269;-60
2023/04/10 06:37:44;;;;;;;6.63;5.43;;;;;;;16.06;57.08;99654.38;5074444;28;20292;-59
2023/04/10 06:40:13;;;;;;;17.53;6.83;;;;;;;16.40;45.50;99670.56;5071615;28;20196;-68
2023/04/10 06:42:41;;;;;;;9.97;6.03;;;;;;;16.32;44.70;99662.03;5070217;28;20246;-69
2023/04/10 06:45:08;;;;;;;13.20;7.03;;;;;;;16.19;43.31;99676.44;5073459;28;20287;-69
2023/04/10 06:47:35;;;;;;;11.03;6.03;;;;;;;16.17;43.17;99675.03;5071674;28;20690;-70
2023/04/10 06:50:02;;;;;;;6.70;5.67;;;;;;;16.47;42.17;99675.84;5060726;28;20668;-71
2023/04/10 06:52:29;;;;;;;7.40;5.47;;;;;;;17.05;41.78;99684.81;5071375;28;20200;-71
2023/04/10 06:54:57;;;;;;;18.13;6.10;;;;;;;17.76;39.98;99682.69;5073081;28;20233;-70
2023/04/10 06:57:24;;;;;;;6.07;5.57;;;;;;;18.61;37.84;99671.69;5073797;28;20227;-67
2023/04/10 06:59:50;;;;;;;18.93;5.80;;;;;;;19.02;36.15;99665.91;5073597;28;20669;-68
2023/04/10 07:02:17;;;;;;;35.73;7.77;;;;;;;19.30;38.05;99656.94;5070887;28;20188;-70
2023/04/10 07:04:44;;;;;;;14.30;4.53;;;;;;;20.09;38.35;99656.31;5072847;28;20197;-79
2023/04/10 07:07:12;;;;;;;5.40;4.73;;;;;;;20.80;38.62;99655.13;5067574;28;20193;-73
2023/04/10 07:09:39;;;;;;;5.53;4.50;;;;;;;20.86;31.98;99663.00;5073785;28;20269;-74
2023/04/10 07:12:07;;;;;;;6.33;4.47;;;;;;;20.50;31.99;99655.69;5083242;28;20428;-73
2023/04/10 07:14:34;;;;;;;6.80;4.00;;;;;;;20.32;32.09;99658.75;5093520;28;20673;-79
2023/04/10 07:17:01;;;;;;;24.40;6.50;;;;;;;20.10;32.72;99663.38;5071906;28;20326;-72
2023/04/10 07:19:28;;;;;;;4.97;4.53;;;;;;;20.09;32.96;99662.53;5071832;28;20259;-67
2023/04/10 07:21:54;;;;;;;6.17;5.17;;;;;;;20.02;31.86;99658.41;5072742;28;20231;-68
2023/04/10 07:24:21;;;;;;;5.23;4.57;;;;;;;19.78;32.45;99657.03;5069942;28;20200;-66
2023/04/10 07:26:48;;;;;;;5.67;4.80;;;;;;;19.39;32.74;99660.81;5067260;28;20246;-65
2023/04/10 07:29:16;;;;;;;5.93;5.23;;;;;;;19.24;33.42;99647.94;5052457;28;20216;-66
2023/04/10 07:31:43;;;;;;;7.93;4.53;;;;;;;19.07;33.73;99657.91;5052624;28;20276;-66
2023/04/10 07:34:10;;;;;;;9.20;5.13;;;;;;;18.81;33.59;99653.19;5071785;28;20234;-68
2023/04/10 07:36:37;;;;;;;13.20;5.43;;;;;;;18.86;33.95;99658.66;5062580;28;20227;-67
2023/04/10 07:39:04;;;;;;;6.93;4.33;;;;;;;19.09;33.73;99652.28;5071263;28;20712;-67
2023/04/10 07:41:31;;;;;;;4.67;4.10;;;;;;;19.18;32.46;99656.19;5092965;28;20230;-67
2023/04/10 07:43:57;;;;;;;9.33;4.57;;;;;;;19.04;32.87;99653.00;5081665;28;20731;-68
2023/04/10 07:46:26;;;;;;;7.73;4.47;;;;;;;19.17;33.71;99649.16;5063448;28;20247;-68
2023/04/10 07:48:53;;;;;;;5.53;4.27;;;;;;;19.46;33.05;99642.59;5071973;28;20230;-67
2023/04/10 07:51:20;;;;;;;4.83;4.43;;;;;;;19.72;33.19;99639.97;5071470;28;20693;-68
2023/04/10 07:53:47;;;;;;;5.07;4.77;;;;;;;19.89;32.43;99648.81;5072261;28;20254;-68
2023/04/10 07:56:18;;;;;;;5.10;4.60;;;;;;;19.51;31.54;99653.44;5071187;28;20235;-68
2023/04/10 07:58:45;;;;;;;4.60;4.20;;;;;;;19.51;32.27;99651.56;5071338;28;20351;-68
2023/04/10 08:01:12;;;;;;;4.20;3.93;;;;;;;19.40;31.86;99640.91;5065172;28;20322;-67
2023/04/10 08:03:41;;;;;;;21.00;5.27;;;;;;;19.62;31.99;99639.03;5052307;28;20196;-67
2023/04/10 08:06:09;;;;;;;4.90;3.57;;;;;;;19.66;31.62;99637.47;5053440;28;20620;-68
2023/04/10 08:08:36;;;;;;;3.80;3.53;;;;;;;19.62;31.75;99633.66;5070984;28;20200;-69
2023/04/10 08:11:04;;;;;;;4.07;3.40;;;;;;;19.57;31.64;99629.00;5069715;28;20246;-69
2023/04/10 08:13:31;;;;;;;3.40;3.30;;;;;;;19.71;31.15;99629.44;5071432;28;20250;-69
2023/04/10 08:15:58;;;;;;;3.70;3.50;;;;;;;19.67;31.74;99628.31;5072210;28;20191;-67
2023/04/10 08:18:24;;;;;;;3.73;3.40;;;;;;;19.78;32.13;99624.69;5071686;28;20224;-68
2023/04/10 08:20:52;;;;;;;4.30;3.90;;;;;;;19.51;31.69;99639.97;5071141;28;20202;-66
2023/04/10 08:23:19;;;;;;;3.13;3.03;;;;;;;19.58;31.39;99627.13;5068909;28;20672;-67
2023/04/10 08:25:46;;;;;;;4.17;3.80;;;;;;;19.45;31.72;99630.19;5071826;28;20422;-69
2023/04/10 08:28:12;;;;;;;3.50;3.30;;;;;;;19.22;32.03;99619.59;5071809;28;20315;-67
2023/04/10 08:30:39;;;;;;;3.93;3.50;;;;;;;19.19;32.65;99617.44;5058770;28;20196;-65
2023/04/10 08:33:06;;;;;;;4.00;3.70;;;;;;;19.09;32.44;99615.41;5072216;28;20621;-65
2023/04/10 08:35:33;;;;;;;5.03;3.80;;;;;;;18.96;33.22;99593.41;5063529;28;20206;-66
2023/04/10 08:38:01;;;;;;;7.27;3.33;;;;;;;19.03;33.89;99608.31;5052098;28;20218;-65
2023/04/10 08:40:28;;;;;;;2.90;2.70;;;;;;;18.86;33.22;99612.06;5051912;28;20204;-65
2023/04/10 08:42:55;;;;;;;4.63;2.60;;;;;;;18.73;33.42;99607.88;5051659;28;20673;-65
2023/04/10 08:45:22;;;;;;;2.83;2.60;;;;;;;18.71;34.19;99607.28;5051882;28;20643;-65
2023/04/10 08:47:51;;;;;;;12.43;2.70;;;;;;;18.39;35.03;99602.72;5051798;28;20192;-65
2023/04/10 08:50:18;;;;;;;2.83;2.63;;;;;;;18.58;34.10;99601.44;5051460;28;20229;-65
2023/04/10 08:52:49;;;;;;;3.00;2.60;;;;;;;18.53;33.28;99614.78;5051775;28;20287;-65
2023/04/10 08:55:19;;;;;;;9.97;3.00;;;;;;;18.47;34.30;99599.63;5051348;28;20212;-65
2023/04/10 08:57:46;;;;;;;4.63;3.87;;;;;;;18.56;33.85;99598.97;5051773;28;20277;-65
2023/04/10 09:00:14;;;;;;;4.57;3.40;;;;;;;18.56;33.61;99600.84;5050139;28;20192;-65
2023/04/10 09:02:41;;;;;;;3.67;3.27;;;;;;;18.52;34.28;99597.84;5051402;28;20217;-65
2023/04/10 09:05:11;;;;;;;3.40;3.03;;;;;;;18.45;34.04;99590.97;5051457;28;20203;-66
2023/04/10 09:07:38;;;;;;;5.10;3.20;;;;;;;18.45;34.52;99590.97;5051879;28;20270;-65
2023/04/10 09:10:06;;;;;;;2.93;2.83;;;;;;;18.33;33.89;99582.16;5053919;28;20231;-65
2023/04/10 09:12:46;;;;;;;5.23;3.10;;;;;;;18.26;33.86;99586.88;5051721;28;20196;-65
2023/04/10 09:15:12;;;;;;;3.67;3.33;;;;;;;18.19;34.49;99586.19;5051219;28;20741;-66
2023/04/10 09:17:55;;;;;;;4.53;2.53;;;;;;;17.67;35.02;99572.06;5051736;28;20255;-65
2023/04/10 09:20:24;;;;;;;4.33;2.87;;;;;;;17.28;36.54;99580.13;5051746;28;20246;-66
2023/04/10 09:22:52;;;;;;;4.30;2.50;;;;;;;17.08;36.59;99585.03;5051463;28;20204;-66
2023/04/10 09:25:35;;;;;;;3.13;2.70;;;;;;;16.66;37.21;99570.16;5067465;28;20195;-66
2023/04/10 09:28:06;;;;;;;4.67;2.80;;;;;;;16.84;37.77;99578.06;5071678;28;20653;-65
2023/04/10 09:30:34;;;;;;;5.53;3.37;;;;;;;16.91;37.96;99582.25;5071601;28;20198;-65
2023/04/10 09:33:01;;;;;;;3.27;2.97;;;;;;;16.79;37.46;99567.22;5071490;28;20666;-65
2023/04/10 09:35:36;;;;;;;5.10;3.50;;;;;;;16.83;38.15;99569.22;5063995;28;20204;-66
2023/04/10 09:38:14;;;;;;;3.53;3.23;;;;;;;16.62;39.27;99567.09;5055537;28;20310;-65
2023/04/10 09:40:41;;;;;;;3.10;2.90;;;;;;;16.80;39.28;99564.31;5054977;28;20199;-65
2023/04/10 09:43:22;;;;;;;3.00;2.70;;;;;;;16.83;38.87;99573.75;5055125;28;20242;-65
2023/04/10 09:45:55;;;;;;;3.80;3.47;;;;;;;16.76;39.61;99565.00;5055680;28;20193;-65
2023/04/10 09:48:22;;;;;;;3.80;3.60;;;;;;;16.75;39.56;99569.56;5055393;28;20227;-64
2023/04/10 09:50:49;;;;;;;2.90;2.80;;;;;;;16.28;40.24;99558.97;5055294;28;20188;-65
2023/04/10 09:53:18;;;;;;;8.43;5.07;;;;;;;16.20;41.27;99562.03;5054944;28;20197;-65
2023/04/10 09:55:45;;;;;;;3.10;2.90;;;;;;;16.05;41.50;99561.63;5054960;28;20227;-66
2023/04/10 09:58:13;;;;;;;3.90;2.80;;;;;;;16.09;41.87;99565.50;5055055;28;20221;-65
2023/04/10 10:00:42;;;;;;;3.87;3.57;;;;;;;16.15;42.22;99567.22;5055132;28;20196;-65
2023/04/10 10:03:11;;;;;;;5.57;3.30;;;;;;;16.26;42.64;99566.44;5055000;28;20208;-65
2023/04/10 10:05:40;;;;;;;3.90;3.63;;;;;;;16.32;42.04;99570.88;5054975;28;20197;-65
2023/04/10 10:08:10;;;;;;;3.20;3.00;;;;;;;16.45;41.66;99565.34;5054819;28;20265;-65
2023/04/10 10:10:45;;;;;;;9.13;3.63;;;;;;;16.62;41.15;99567.09;5057101;28;20209;-66
2023/04/10 10:13:17;;;;;;;3.33;3.10;;;;;;;16.52;41.52;99561.50;5054730;28;20193;-65
2023/04/10 10:15:54;;;;;;;2.97;2.87;;;;;;;16.68;41.43;99565.34;5054439;28;20189;-65
2023/04/10 10:18:28;;;;;;;3.60;3.40;;;;;;;16.85;40.72;99566.28;5054188;28;20232;-65
2023/04/10 10:20:55;;;;;;;3.77;3.40;;;;;;;16.49;41.57;99553.13;5053425;28;20198;-66
2023/04/10 10:23:23;;;;;;;5.93;3.03;;;;;;;16.57;42.43;99552.78;5054558;28;20258;-65
2023/04/10 10:25:52;;;;;;;5.13;3.50;;;;;;;16.72;42.31;99551.25;5061745;28;20204;-65
2023/04/10 10:28:20;;;;;;;4.53;3.37;;;;;;;16.83;41.93;99563.03;5074190;28;20228;-66
2023/04/10 10:30:48;;;;;;;4.93;3.30;;;;;;;16.17;43.52;99563.28;5074432;28;20196;-66
2023/04/10 10:33:15;;;;;;;3.07;2.87;;;;;;;16.02;43.37;99553.00;5074033;28;20282;-66
2023/04/10 10:35:42;;;;;;;4.50;3.73;;;;;;;15.83;44.79;99561.31;5065619;28;20189;-66
2023/04/10 10:38:10;;;;;;;3.40;3.13;;;;;;;15.64;45.90;99552.53;5074066;28;20196;-66
2023/04/10 10:40:45;;;;;;;5.20;4.70;;;;;;;15.37;47.28;99548.56;5074369;28;20250;-66
2023/04/10 10:43:18;;;;;;;3.60;3.37;;;;;;;15.45;47.83;99537.53;5073897;28;20180;-66
2023/04/10 10:45:53;;;;;;;4.37;4.07;;;;;;;15.34;48.06;99535.63;5074274;28;20188;-65
2023/04/10 10:48:20;;;;;;;4.00;3.70;;;;;;;15.37;47.29;99518.31;5073781;28;20187;-66
2023/04/10 10:50:56;;;;;;;4.23;3.90;;;;;;;15.05;46.66;99539.06;5074230;28;20204;-65
2023/04/10 10:53:39;;;;;;;5.00;4.60;;;;;;;15.12;47.09;99539.78;5073994;28;20202;-65
2023/04/10 10:56:35;;;;;;;4.80;4.40;;;;;;;14.92;47.84;99536.53;5074095;28;20292;-65
2023/04/10 10:59:02;;;;;;;5.33;3.70;;;;;;;15.29;48.28;99526.63;5073634;28;20310;-66
2023/04/10 11:01:30;;;;;;;3.87;3.67;;;;;;;15.54;47.21;99530.84;5073884;28;20192;-68
2023/04/10 11:03:58;;;;;;;4.03;3.73;;;;;;;15.75;46.01;99532.19;5073897;28;20242;-67
2023/04/10 11:06:51;;;;;;;3.93;3.57;;;;;;;15.83;45.73;99527.34;5073523;28;20200;-66
2023/04/10 11:09:50;;;;;;;5.83;4.07;;;;;;;15.99;45.71;99531.22;5073442;28;20184;-66
2023/04/10 11:12:19;;;;;;;4.10;3.87;;;;;;;15.72;45.90;99522.75;5053386;28;20724;-67
2023/04/10 11:14:57;;;;;;;3.90;3.50;;;;;;;15.94;45.63;99525.72;5053672;28;20274;-67
2023/04/10 11:17:51;;;;;;;4.27;3.93;;;;;;;15.95;45.56;99530.03;5053461;28;20185;-66
2023/04/10 11:20:20;;;;;;;3.30;3.10;;;;;;;15.68;45.25;99524.25;5052766;28;20221;-67
2023/04/10 11:23:08;;;;;;;3.27;3.00;;;;;;;15.68;46.16;99518.88;5052987;28;20697;-67
2023/04/10 11:25:50;;;;;;;11.27;3.27;;;;;;;15.52;46.28;99519.53;5058694;28;20246;-67
2023/04/10 11:28:39;;;;;;;3.93;3.40;;;;;;;15.61;46.68;99531.53;5073307;28;20224;-68
2023/04/10 11:31:18;;;;;;;6.83;3.77;;;;;;;15.74;47.40;99527.88;5073330;28;20569;-67
2023/04/10 11:33:47;;;;;;;3.83;3.33;;;;;;;15.66;46.77;99518.31;5072879;28;20585;-66
2023/04/10 11:36:16;;;;;;;4.57;3.10;;;;;;;15.60;46.97;99524.56;5064414;28;20192;-66
2023/04/10 11:38:54;;;;;;;3.53;3.27;;;;;;;15.65;46.09;99532.72;5073375;28;20306;-66